| time (UTC) | temp C | wind direction | speed KPH | gust KPH | rain 1hr cm | rain 24hr cm | rain mn cm | humidity % | barometer mb |
| 20260509233016 | 19 | 215 | 22.5 | 43.5 | 0.00 | 2.31 | 0.05 | 72 | 1004.5 |
| 20260509230027 | 18 | 202 | 20.9 | 37.0 | 0.00 | 3.30 | 0.05 | 75 | 1004.5 |
| 20260509223039 | 17 | 214 | 14.5 | 32.2 | 0.00 | 3.30 | 0.05 | 78 | 1004.5 |
| 20260509220013 | 17 | 233 | 22.5 | 35.4 | 0.00 | 3.30 | 0.05 | 81 | 1004.1 |
| 20260509213022 | 15 | 241 | 11.3 | 25.7 | 0.00 | 3.30 | 0.05 | 91 | 1004.3 |
| 20260509210033 | 14 | 239 | 4.8 | 14.5 | 0.00 | 3.30 | 0.05 | 95 | 1004.1 |
| 20260509203021 | 13 | 250 | 6.4 | 12.9 | 0.00 | 3.30 | 0.05 | 96 | 1004.3 |
| 20260509200018 | 12 | 231 | 3.2 | 6.4 | 0.00 | 3.30 | 0.05 | 96 | 1003.9 |
| 20260509193053 | 12 | 285 | 0.0 | 4.8 | 0.20 | 3.30 | 0.05 | 95 | 1004.1 |
| 20260509190017 | 12 | 237 | 6.4 | 11.3 | 0.20 | 3.30 | 0.05 | 94 | 1003.9 |
| 20260509183034 | 12 | 214 | 8.0 | 16.1 | 0.00 | 3.10 | 0.03 | 95 | 1003.7 |
| 20260509180028 | 11 | 225 | 8.0 | 12.9 | 0.00 | 3.10 | 0.03 | 96 | 1003.2 |
| 20260509173042 | 11 | 235 | 4.8 | 12.9 | 0.00 | 3.10 | 0.03 | 96 | 1003.0 |
| 20260509170014 | 11 | 239 | 4.8 | 8.0 | 0.00 | 3.10 | 0.03 | 96 | 1002.8 |
| 20260509163025 | 11 | 225 | 4.8 | 9.7 | 0.00 | 3.10 | 0.03 | 96 | 1002.6 |
| 20260509160024 | 11 | 223 | 4.8 | 9.7 | 0.00 | 3.10 | 0.03 | 96 | 1002.8 |
| 20260509153021 | 11 | 239 | 4.8 | 6.4 | 0.00 | 3.10 | 0.03 | 96 | 1003.0 |
| 20260509150030 | 12 | 244 | 3.2 | 4.8 | 0.00 | 3.10 | 0.03 | 96 | 1003.3 |
| 20260509143024 | 12 | 239 | 3.2 | 6.4 | 0.00 | 3.10 | 0.03 | 96 | 1003.4 |
| 20260509140018 | 12 | 221 | 4.8 | 9.7 | 0.00 | 3.20 | 0.03 | 96 | 1003.3 |
| 20260509133013 | 13 | 208 | 6.4 | 9.7 | 0.10 | 3.20 | 0.03 | 96 | 1003.3 |
| 20260509130029 | 13 | 221 | 4.8 | 8.0 | 0.10 | 3.40 | 0.03 | 96 | 1003.3 |
| 20260509123022 | 13 | 235 | 6.4 | 19.3 | 0.51 | 3.30 | 0.00 | 96 | 1003.5 |
| 20260509120042 | 13 | 235 | 3.2 | 6.4 | 0.51 | 3.30 | 0.00 | 96 | 1003.8 |
| 20260509113012 | 13 | 250 | 9.7 | 25.7 | 0.00 | 3.91 | 0.56 | 96 | 1004.1 |
| 20260509110039 | 13 | 231 | 6.4 | 12.9 | 0.00 | 3.91 | 0.56 | 95 | 1003.8 |
| 20260509103035 | 13 | 254 | 6.4 | 12.9 | 0.00 | 3.91 | 0.56 | 94 | 1003.4 |
| 20260509100022 | 13 | 262 | 9.7 | 22.5 | 0.00 | 4.29 | 0.56 | 94 | 1003.7 |
| 20260509093044 | 13 | 264 | 3.2 | 11.3 | 0.00 | 4.29 | 0.56 | 94 | 1003.7 |
| 20260509090019 | 13 | 283 | 6.4 | 17.7 | 0.10 | 4.29 | 0.56 | 94 | 1003.9 |
| 20260509083019 | 14 | 292 | 6.4 | 17.7 | 0.61 | 4.29 | 0.56 | 94 | 1004.1 |
| 20260509080015 | 14 | 306 | 6.4 | 17.7 | 0.89 | 4.19 | 0.53 | 93 | 1004.1 |
| 20260509073016 | 15 | 266 | 12.9 | 24.1 | 0.61 | 3.71 | 0.43 | 93 | 1004.1 |
| 20260509070040 | 15 | 280 | 3.2 | 11.3 | 0.51 | 3.40 | 0.36 | 91 | 1003.5 |
| 20260509063042 | 16 | 229 | 8.0 | 16.1 | 0.30 | 3.20 | 0.33 | 89 | 1003.3 |
| 20260509060014 | 17 | 267 | 6.4 | 20.9 | 0.00 | 2.90 | 0.25 | 86 | 1003.2 |
| 20260509053035 | 17 | 292 | 6.4 | 20.9 | 0.00 | 2.90 | 0.25 | 84 | 1003.0 |
| 20260509050014 | 17 | 284 | 9.7 | 22.5 | 0.00 | 2.90 | 0.25 | 82 | 1003.1 |
| 20260509043037 | 18 | 252 | 4.8 | 11.3 | 0.00 | 2.90 | 0.25 | 80 | 1003.1 |
| 20260509040014 | 19 | 261 | 9.7 | 20.9 | 0.00 | 2.90 | 0.25 | 78 | 1003.4 |
| 20260509033015 | 19 | 304 | 12.9 | 24.1 | 0.00 | 2.90 | 0.25 | 77 | 1003.9 |
| 20260509030016 | 20 | 267 | 11.3 | 19.3 | 0.00 | 2.90 | 0.25 | 77 | 1003.9 |
| 20260509023022 | 20 | 251 | 12.9 | 19.3 | 0.00 | 2.90 | 0.25 | 73 | 1003.6 |
| 20260509020027 | 20 | 295 | 6.4 | 25.7 | 0.00 | 2.90 | 0.25 | 73 | 1003.6 |
| 20260509013028 | 20 | 312 | 9.7 | 25.7 | 0.00 | 2.90 | 0.25 | 75 | 1003.8 |
| 20260509010023 | 18 | 275 | 9.7 | 22.5 | 0.00 | 2.90 | 0.25 | 81 | 1004.3 |
| 20260509003019 | 20 | 260 | 8.0 | 27.4 | 0.00 | 2.90 | 0.25 | 78 | 1004.7 |
| 20260509000034 | 18 | 315 | 8.0 | 16.1 | 0.00 | 2.90 | 0.25 | 85 | 1005.4 |